sensor_id;sensor_type;location;lat;lon;timestamp;P1;durP1;ratioP1;P2;durP2;ratioP2
35677;SDS011;21791;42.828;74.582;2022-12-07T00:01:18;317.27;;;130.80;;
35677;SDS011;21791;42.828;74.582;2022-12-07T00:03:46;334.30;;;134.82;;
35677;SDS011;21791;42.828;74.582;2022-12-07T00:06:14;300.35;;;127.60;;
35677;SDS011;21791;42.828;74.582;2022-12-07T00:08:45;347.20;;;140.65;;
35677;SDS011;21791;42.828;74.582;2022-12-07T00:11:17;395.63;;;157.98;;
35677;SDS011;21791;42.828;74.582;2022-12-07T00:13:46;395.65;;;162.05;;
35677;SDS011;21791;42.828;74.582;2022-12-07T00:16:18;405.30;;;163.68;;
35677;SDS011;21791;42.828;74.582;2022-12-07T00:18:46;431.77;;;169.38;;
35677;SDS011;21791;42.828;74.582;2022-12-07T00:21:16;340.17;;;140.98;;
35677;SDS011;21791;42.828;74.582;2022-12-07T00:23:45;380.27;;;152.75;;
35677;SDS011;21791;42.828;74.582;2022-12-07T00:26:16;324.50;;;133.55;;
35677;SDS011;21791;42.828;74.582;2022-12-07T00:28:46;370.88;;;141.10;;
35677;SDS011;21791;42.828;74.582;2022-12-07T00:31:15;412.77;;;157.98;;
35677;SDS011;21791;42.828;74.582;2022-12-07T00:33:42;320.33;;;129.57;;
35677;SDS011;21791;42.828;74.582;2022-12-07T00:36:10;374.80;;;138.23;;
35677;SDS011;21791;42.828;74.582;2022-12-07T00:38:38;321.40;;;123.07;;
35677;SDS011;21791;42.828;74.582;2022-12-07T00:41:12;328.80;;;122.70;;
35677;SDS011;21791;42.828;74.582;2022-12-07T00:43:40;318.25;;;119.85;;
35677;SDS011;21791;42.828;74.582;2022-12-07T00:46:08;318.35;;;117.30;;
35677;SDS011;21791;42.828;74.582;2022-12-07T00:48:36;306.77;;;121.43;;
35677;SDS011;21791;42.828;74.582;2022-12-07T00:51:03;432.08;;;130.38;;
35677;SDS011;21791;42.828;74.582;2022-12-07T00:53:33;561.75;;;145.40;;
35677;SDS011;21791;42.828;74.582;2022-12-07T00:56:07;519.33;;;142.07;;
35677;SDS011;21791;42.828;74.582;2022-12-07T00:58:36;592.88;;;141.73;;
35677;SDS011;21791;42.828;74.582;2022-12-07T01:01:04;294.02;;;103.40;;
35677;SDS011;21791;42.828;74.582;2022-12-07T01:03:31;564.20;;;129.10;;
35677;SDS011;21791;42.828;74.582;2022-12-07T01:05:58;301.10;;;108.00;;
35677;SDS011;21791;42.828;74.582;2022-12-07T01:08:26;532.30;;;128.45;;
35677;SDS011;21791;42.828;74.582;2022-12-07T01:11:00;592.22;;;134.25;;
35677;SDS011;21791;42.828;74.582;2022-12-07T01:13:32;619.58;;;134.00;;
35677;SDS011;21791;42.828;74.582;2022-12-07T01:16:00;433.35;;;113.15;;
35677;SDS011;21791;42.828;74.582;2022-12-07T01:18:29;439.95;;;120.53;;
35677;SDS011;21791;42.828;74.582;2022-12-07T01:20:57;459.98;;;123.82;;
35677;SDS011;21791;42.828;74.582;2022-12-07T01:23:24;539.35;;;135.90;;
35677;SDS011;21791;42.828;74.582;2022-12-07T01:25:57;594.20;;;130.07;;
35677;SDS011;21791;42.828;74.582;2022-12-07T01:28:25;571.72;;;130.52;;
35677;SDS011;21791;42.828;74.582;2022-12-07T01:31:02;588.25;;;138.70;;
35677;SDS011;21791;42.828;74.582;2022-12-07T01:33:32;674.85;;;147.00;;
35677;SDS011;21791;42.828;74.582;2022-12-07T01:38:39;630.33;;;144.27;;
35677;SDS011;21791;42.828;74.582;2022-12-07T01:41:05;531.05;;;123.78;;
35677;SDS011;21791;42.828;74.582;2022-12-07T01:43:32;344.25;;;108.57;;
35677;SDS011;21791;42.828;74.582;2022-12-07T01:46:00;281.55;;;101.53;;
35677;SDS011;21791;42.828;74.582;2022-12-07T01:49:00;535.72;;;129.35;;
35677;SDS011;21791;42.828;74.582;2022-12-07T01:51:20;831.05;;;169.57;;
35677;SDS011;21791;42.828;74.582;2022-12-07T01:53:46;544.97;;;134.77;;
35677;SDS011;21791;42.828;74.582;2022-12-07T01:56:15;415.75;;;122.75;;
35677;SDS011;21791;42.828;74.582;2022-12-07T01:58:45;561.53;;;140.60;;
35677;SDS011;21791;42.828;74.582;2022-12-07T02:01:13;422.30;;;124.85;;
35677;SDS011;21791;42.828;74.582;2022-12-07T02:03:41;354.35;;;110.53;;
35677;SDS011;21791;42.828;74.582;2022-12-07T02:06:11;531.00;;;137.55;;
35677;SDS011;21791;42.828;74.582;2022-12-07T02:08:41;626.67;;;135.50;;
35677;SDS011;21791;42.828;74.582;2022-12-07T02:11:08;659.60;;;141.00;;
35677;SDS011;21791;42.828;74.582;2022-12-07T02:13:37;227.32;;;91.57;;
35677;SDS011;21791;42.828;74.582;2022-12-07T02:16:14;257.60;;;96.95;;
35677;SDS011;21791;42.828;74.582;2022-12-07T02:26:49;262.50;;;97.60;;
35677;SDS011;21791;42.828;74.582;2022-12-07T02:29:47;271.63;;;97.15;;
35677;SDS011;21791;42.828;74.582;2022-12-07T02:35:07;262.08;;;100.03;;
35677;SDS011;21791;42.828;74.582;2022-12-07T02:38:01;301.92;;;106.07;;
35677;SDS011;21791;42.828;74.582;2022-12-07T02:40:33;300.10;;;107.28;;
35677;SDS011;21791;42.828;74.582;2022-12-07T02:43:06;256.00;;;95.90;;
35677;SDS011;21791;42.828;74.582;2022-12-07T02:45:35;279.13;;;107.57;;
35677;SDS011;21791;42.828;74.582;2022-12-07T02:48:05;283.30;;;101.50;;
35677;SDS011;21791;42.828;74.582;2022-12-07T02:50:35;276.35;;;101.70;;
35677;SDS011;21791;42.828;74.582;2022-12-07T02:53:02;303.33;;;109.70;;
35677;SDS011;21791;42.828;74.582;2022-12-07T02:55:30;295.25;;;107.95;;
35677;SDS011;21791;42.828;74.582;2022-12-07T03:00:44;296.33;;;107.63;;
35677;SDS011;21791;42.828;74.582;2022-12-07T03:03:20;287.27;;;105.72;;
35677;SDS011;21791;42.828;74.582;2022-12-07T03:12:01;227.25;;;88.50;;
35677;SDS011;21791;42.828;74.582;2022-12-07T03:14:41;246.80;;;91.63;;
35677;SDS011;21791;42.828;74.582;2022-12-07T03:17:20;200.02;;;81.28;;
35677;SDS011;21791;42.828;74.582;2022-12-07T03:19:50;242.60;;;91.40;;
35677;SDS011;21791;42.828;74.582;2022-12-07T03:22:22;209.30;;;86.82;;
35677;SDS011;21791;42.828;74.582;2022-12-07T03:24:54;198.85;;;82.35;;
35677;SDS011;21791;42.828;74.582;2022-12-07T03:27:31;211.98;;;81.45;;
35677;SDS011;21791;42.828;74.582;2022-12-07T03:30:06;181.93;;;73.70;;
35677;SDS011;21791;42.828;74.582;2022-12-07T03:32:48;151.23;;;62.15;;
35677;SDS011;21791;42.828;74.582;2022-12-07T03:35:46;101.88;;;42.55;;
35677;SDS011;21791;42.828;74.582;2022-12-07T03:38:23;48.75;;;22.77;;
35677;SDS011;21791;42.828;74.582;2022-12-07T03:41:00;58.63;;;27.95;;
35677;SDS011;21791;42.828;74.582;2022-12-07T03:43:42;56.13;;;25.77;;
35677;SDS011;21791;42.828;74.582;2022-12-07T03:48:58;39.03;;;19.20;;
35677;SDS011;21791;42.828;74.582;2022-12-07T03:52:20;59.85;;;25.67;;
35677;SDS011;21791;42.828;74.582;2022-12-07T03:54:30;49.20;;;25.17;;
35677;SDS011;21791;42.828;74.582;2022-12-07T03:57:07;37.65;;;19.42;;
35677;SDS011;21791;42.828;74.582;2022-12-07T03:59:36;42.60;;;21.80;;
35677;SDS011;21791;42.828;74.582;2022-12-07T04:02:04;41.72;;;22.38;;
35677;SDS011;21791;42.828;74.582;2022-12-07T04:04:33;40.25;;;19.23;;
35677;SDS011;21791;42.828;74.582;2022-12-07T04:07:00;35.95;;;18.98;;
35677;SDS011;21791;42.828;74.582;2022-12-07T04:09:27;41.65;;;20.15;;
35677;SDS011;21791;42.828;74.582;2022-12-07T04:11:53;32.58;;;17.00;;
35677;SDS011;21791;42.828;74.582;2022-12-07T04:14:20;28.63;;;16.50;;
35677;SDS011;21791;42.828;74.582;2022-12-07T04:16:56;29.92;;;16.20;;
35677;SDS011;21791;42.828;74.582;2022-12-07T04:19:28;30.27;;;16.88;;
35677;SDS011;21791;42.828;74.582;2022-12-07T04:21:56;35.70;;;19.13;;
35677;SDS011;21791;42.828;74.582;2022-12-07T04:24:23;26.95;;;16.38;;
35677;SDS011;21791;42.828;74.582;2022-12-07T04:26:51;29.80;;;15.98;;
35677;SDS011;21791;42.828;74.582;2022-12-07T04:29:18;28.42;;;16.48;;
35677;SDS011;21791;42.828;74.582;2022-12-07T04:31:45;30.00;;;17.88;;
35677;SDS011;21791;42.828;74.582;2022-12-07T04:34:14;27.85;;;16.88;;
35677;SDS011;21791;42.828;74.582;2022-12-07T04:36:41;31.65;;;18.60;;
35677;SDS011;21791;42.828;74.582;2022-12-07T04:39:31;29.88;;;17.25;;
35677;SDS011;21791;42.828;74.582;2022-12-07T04:41:57;27.88;;;16.27;;
35677;SDS011;21791;42.828;74.582;2022-12-07T04:44:25;27.02;;;17.42;;
35677;SDS011;21791;42.828;74.582;2022-12-07T04:46:52;27.35;;;17.00;;
35677;SDS011;21791;42.828;74.582;2022-12-07T04:49:20;25.98;;;16.88;;
35677;SDS011;21791;42.828;74.582;2022-12-07T04:51:47;25.75;;;17.20;;
35677;SDS011;21791;42.828;74.582;2022-12-07T04:54:14;28.60;;;17.65;;
35677;SDS011;21791;42.828;74.582;2022-12-07T04:56:42;21.58;;;15.10;;
35677;SDS011;21791;42.828;74.582;2022-12-07T04:59:09;22.95;;;16.42;;
35677;SDS011;21791;42.828;74.582;2022-12-07T05:01:40;22.52;;;15.73;;
35677;SDS011;21791;42.828;74.582;2022-12-07T05:04:07;25.90;;;15.00;;
35677;SDS011;21791;42.828;74.582;2022-12-07T05:06:35;24.52;;;15.10;;
35677;SDS011;21791;42.828;74.582;2022-12-07T05:09:03;25.23;;;15.63;;
35677;SDS011;21791;42.828;74.582;2022-12-07T05:11:30;20.63;;;13.40;;
35677;SDS011;21791;42.828;74.582;2022-12-07T05:16:51;13.43;;;7.97;;
35677;SDS011;21791;42.828;74.582;2022-12-07T05:19:19;13.65;;;9.35;;
35677;SDS011;21791;42.828;74.582;2022-12-07T05:21:46;13.90;;;9.63;;
35677;SDS011;21791;42.828;74.582;2022-12-07T05:24:13;14.15;;;9.48;;
35677;SDS011;21791;42.828;74.582;2022-12-07T05:26:42;11.90;;;8.48;;
35677;SDS011;21791;42.828;74.582;2022-12-07T05:29:15;9.52;;;6.47;;
35677;SDS011;21791;42.828;74.582;2022-12-07T05:31:43;8.88;;;6.72;;
35677;SDS011;21791;42.828;74.582;2022-12-07T05:34:09;9.93;;;6.30;;
35677;SDS011;21791;42.828;74.582;2022-12-07T05:36:36;11.13;;;7.35;;
35677;SDS011;21791;42.828;74.582;2022-12-07T05:39:03;10.40;;;6.75;;
35677;SDS011;21791;42.828;74.582;2022-12-07T05:41:29;10.63;;;7.35;;
35677;SDS011;21791;42.828;74.582;2022-12-07T05:44:14;11.60;;;7.32;;
35677;SDS011;21791;42.828;74.582;2022-12-07T05:46:41;12.45;;;7.22;;
35677;SDS011;21791;42.828;74.582;2022-12-07T05:49:07;13.52;;;8.25;;
35677;SDS011;21791;42.828;74.582;2022-12-07T05:51:34;14.80;;;7.95;;
35677;SDS011;21791;42.828;74.582;2022-12-07T05:54:01;14.55;;;7.07;;
35677;SDS011;21791;42.828;74.582;2022-12-07T05:56:27;15.32;;;7.72;;
35677;SDS011;21791;42.828;74.582;2022-12-07T05:58:53;11.43;;;8.00;;
35677;SDS011;21791;42.828;74.582;2022-12-07T06:01:39;18.77;;;8.30;;
35677;SDS011;21791;42.828;74.582;2022-12-07T06:04:06;16.83;;;8.90;;
35677;SDS011;21791;42.828;74.582;2022-12-07T06:06:32;16.60;;;10.10;;
35677;SDS011;21791;42.828;74.582;2022-12-07T06:08:59;15.57;;;9.32;;
35677;SDS011;21791;42.828;74.582;2022-12-07T06:11:26;13.80;;;8.65;;
35677;SDS011;21791;42.828;74.582;2022-12-07T06:14:18;18.02;;;9.88;;
35677;SDS011;21791;42.828;74.582;2022-12-07T06:16:45;22.83;;;11.38;;
35677;SDS011;21791;42.828;74.582;2022-12-07T06:19:12;22.42;;;12.85;;
35677;SDS011;21791;42.828;74.582;2022-12-07T06:21:38;163.15;;;94.28;;
35677;SDS011;21791;42.828;74.582;2022-12-07T06:24:05;190.85;;;107.45;;
35677;SDS011;21791;42.828;74.582;2022-12-07T06:26:32;189.20;;;105.40;;
35677;SDS011;21791;42.828;74.582;2022-12-07T06:28:58;191.55;;;104.07;;
35677;SDS011;21791;42.828;74.582;2022-12-07T06:31:24;196.65;;;106.22;;
35677;SDS011;21791;42.828;74.582;2022-12-07T06:33:51;179.27;;;97.60;;
35677;SDS011;21791;42.828;74.582;2022-12-07T06:36:22;173.95;;;94.95;;
35677;SDS011;21791;42.828;74.582;2022-12-07T06:38:48;187.25;;;98.05;;
35677;SDS011;21791;42.828;74.582;2022-12-07T06:41:15;171.00;;;91.30;;
35677;SDS011;21791;42.828;74.582;2022-12-07T06:43:42;176.57;;;93.20;;
35677;SDS011;21791;42.828;74.582;2022-12-07T06:46:08;173.05;;;87.60;;
35677;SDS011;21791;42.828;74.582;2022-12-07T06:48:35;170.93;;;87.82;;
35677;SDS011;21791;42.828;74.582;2022-12-07T06:51:01;179.43;;;89.18;;
35677;SDS011;21791;42.828;74.582;2022-12-07T06:53:28;170.75;;;90.13;;
35677;SDS011;21791;42.828;74.582;2022-12-07T06:55:54;163.85;;;86.03;;
35677;SDS011;21791;42.828;74.582;2022-12-07T06:58:21;163.65;;;81.85;;
35677;SDS011;21791;42.828;74.582;2022-12-07T07:00:48;183.30;;;90.13;;
35677;SDS011;21791;42.828;74.582;2022-12-07T07:03:16;178.63;;;94.78;;
35677;SDS011;21791;42.828;74.582;2022-12-07T07:05:43;182.38;;;89.70;;
35677;SDS011;21791;42.828;74.582;2022-12-07T07:08:10;185.90;;;92.80;;
35677;SDS011;21791;42.828;74.582;2022-12-07T07:10:37;173.93;;;88.78;;
35677;SDS011;21791;42.828;74.582;2022-12-07T07:13:05;175.80;;;88.15;;
35677;SDS011;21791;42.828;74.582;2022-12-07T07:15:32;170.32;;;85.45;;
35677;SDS011;21791;42.828;74.582;2022-12-07T07:17:59;182.98;;;88.55;;
35677;SDS011;21791;42.828;74.582;2022-12-07T07:20:25;160.25;;;82.35;;
35677;SDS011;21791;42.828;74.582;2022-12-07T07:22:55;167.20;;;81.32;;
35677;SDS011;21791;42.828;74.582;2022-12-07T07:25:22;162.00;;;84.43;;
35677;SDS011;21791;42.828;74.582;2022-12-07T07:27:49;180.50;;;88.45;;
35677;SDS011;21791;42.828;74.582;2022-12-07T07:30:15;176.45;;;87.88;;
35677;SDS011;21791;42.828;74.582;2022-12-07T07:32:42;171.13;;;87.35;;
35677;SDS011;21791;42.828;74.582;2022-12-07T07:35:08;171.77;;;84.70;;
35677;SDS011;21791;42.828;74.582;2022-12-07T07:37:35;167.45;;;82.57;;
35677;SDS011;21791;42.828;74.582;2022-12-07T07:40:01;163.07;;;82.15;;
35677;SDS011;21791;42.828;74.582;2022-12-07T07:42:28;160.27;;;83.90;;
35677;SDS011;21791;42.828;74.582;2022-12-07T07:44:54;166.55;;;81.45;;
35677;SDS011;21791;42.828;74.582;2022-12-07T07:47:21;172.27;;;82.50;;
35677;SDS011;21791;42.828;74.582;2022-12-07T07:49:48;170.80;;;86.43;;
35677;SDS011;21791;42.828;74.582;2022-12-07T07:52:14;166.65;;;82.57;;
35677;SDS011;21791;42.828;74.582;2022-12-07T07:54:41;167.70;;;78.28;;
35677;SDS011;21791;42.828;74.582;2022-12-07T07:57:07;157.52;;;80.05;;
35677;SDS011;21791;42.828;74.582;2022-12-07T07:59:34;157.25;;;77.60;;
35677;SDS011;21791;42.828;74.582;2022-12-07T08:02:00;159.55;;;80.38;;
35677;SDS011;21791;42.828;74.582;2022-12-07T08:04:27;154.35;;;77.93;;
35677;SDS011;21791;42.828;74.582;2022-12-07T08:06:53;147.63;;;75.25;;
35677;SDS011;21791;42.828;74.582;2022-12-07T08:09:20;154.85;;;75.45;;
35677;SDS011;21791;42.828;74.582;2022-12-07T08:11:47;159.02;;;75.00;;
35677;SDS011;21791;42.828;74.582;2022-12-07T08:14:13;151.55;;;73.10;;
35677;SDS011;21791;42.828;74.582;2022-12-07T08:16:40;144.23;;;70.50;;
35677;SDS011;21791;42.828;74.582;2022-12-07T08:19:06;150.85;;;72.82;;
35677;SDS011;21791;42.828;74.582;2022-12-07T08:21:33;148.40;;;72.28;;
35677;SDS011;21791;42.828;74.582;2022-12-07T08:23:59;145.60;;;70.93;;
35677;SDS011;21791;42.828;74.582;2022-12-07T08:26:26;155.98;;;75.13;;
35677;SDS011;21791;42.828;74.582;2022-12-07T08:28:52;151.18;;;72.90;;
35677;SDS011;21791;42.828;74.582;2022-12-07T08:31:19;145.65;;;70.55;;
35677;SDS011;21791;42.828;74.582;2022-12-07T08:33:46;149.90;;;74.00;;
35677;SDS011;21791;42.828;74.582;2022-12-07T08:36:14;151.52;;;73.75;;
35677;SDS011;21791;42.828;74.582;2022-12-07T08:38:42;160.55;;;72.68;;
35677;SDS011;21791;42.828;74.582;2022-12-07T08:41:08;152.48;;;75.63;;
35677;SDS011;21791;42.828;74.582;2022-12-07T08:43:35;160.18;;;77.63;;
35677;SDS011;21791;42.828;74.582;2022-12-07T08:48:31;163.77;;;80.75;;
35677;SDS011;21791;42.828;74.582;2022-12-07T08:50:58;168.75;;;84.88;;
35677;SDS011;21791;42.828;74.582;2022-12-07T08:53:27;172.48;;;86.60;;
35677;SDS011;21791;42.828;74.582;2022-12-07T08:55:55;196.65;;;95.65;;
35677;SDS011;21791;42.828;74.582;2022-12-07T08:58:23;198.25;;;101.35;;
35677;SDS011;21791;42.828;74.582;2022-12-07T09:00:50;207.25;;;103.25;;
35677;SDS011;21791;42.828;74.582;2022-12-07T09:03:17;191.48;;;94.75;;
35677;SDS011;21791;42.828;74.582;2022-12-07T09:05:44;183.00;;;91.78;;
35677;SDS011;21791;42.828;74.582;2022-12-07T09:08:10;173.85;;;85.13;;
35677;SDS011;21791;42.828;74.582;2022-12-07T09:10:38;160.52;;;78.93;;
35677;SDS011;21791;42.828;74.582;2022-12-07T09:13:04;162.50;;;80.28;;
35677;SDS011;21791;42.828;74.582;2022-12-07T09:15:31;155.07;;;79.13;;
35677;SDS011;21791;42.828;74.582;2022-12-07T09:17:57;139.30;;;66.43;;
35677;SDS011;21791;42.828;74.582;2022-12-07T09:20:24;121.53;;;56.63;;
35677;SDS011;21791;42.828;74.582;2022-12-07T09:22:50;111.18;;;51.72;;
35677;SDS011;21791;42.828;74.582;2022-12-07T09:25:17;89.93;;;43.78;;
35677;SDS011;21791;42.828;74.582;2022-12-07T09:27:44;87.90;;;41.10;;
35677;SDS011;21791;42.828;74.582;2022-12-07T09:30:11;89.38;;;41.88;;
35677;SDS011;21791;42.828;74.582;2022-12-07T09:32:37;107.75;;;50.72;;
35677;SDS011;21791;42.828;74.582;2022-12-07T09:35:04;197.82;;;86.57;;
35677;SDS011;21791;42.828;74.582;2022-12-07T09:37:30;224.73;;;96.57;;
35677;SDS011;21791;42.828;74.582;2022-12-07T09:40:00;249.38;;;108.20;;
35677;SDS011;21791;42.828;74.582;2022-12-07T09:44:55;237.23;;;104.70;;
35677;SDS011;21791;42.828;74.582;2022-12-07T09:47:24;240.23;;;107.25;;
35677;SDS011;21791;42.828;74.582;2022-12-07T09:49:52;247.23;;;109.95;;
35677;SDS011;21791;42.828;74.582;2022-12-07T09:52:27;230.07;;;98.22;;
35677;SDS011;21791;42.828;74.582;2022-12-07T09:54:55;242.52;;;105.70;;
35677;SDS011;21791;42.828;74.582;2022-12-07T09:57:28;235.45;;;105.97;;
35677;SDS011;21791;42.828;74.582;2022-12-07T09:59:59;192.57;;;75.55;;
35677;SDS011;21791;42.828;74.582;2022-12-07T10:05:09;196.65;;;80.43;;
35677;SDS011;21791;42.828;74.582;2022-12-07T10:07:42;225.77;;;97.78;;
35677;SDS011;21791;42.828;74.582;2022-12-07T10:10:18;242.30;;;100.45;;
35677;SDS011;21791;42.828;74.582;2022-12-07T10:12:55;242.20;;;102.50;;
35677;SDS011;21791;42.828;74.582;2022-12-07T10:15:23;229.98;;;95.80;;
35677;SDS011;21791;42.828;74.582;2022-12-07T10:18:29;233.60;;;99.05;;
35677;SDS011;21791;42.828;74.582;2022-12-07T10:26:50;246.93;;;98.32;;
35677;SDS011;21791;42.828;74.582;2022-12-07T10:29:20;273.88;;;106.97;;
35677;SDS011;21791;42.828;74.582;2022-12-07T10:31:57;293.85;;;113.18;;
35677;SDS011;21791;42.828;74.582;2022-12-07T10:34:33;308.10;;;119.50;;
35677;SDS011;21791;42.828;74.582;2022-12-07T10:39:47;330.23;;;126.38;;
35677;SDS011;21791;42.828;74.582;2022-12-07T10:42:19;319.88;;;128.75;;
35677;SDS011;21791;42.828;74.582;2022-12-07T10:45:07;324.40;;;127.65;;
35677;SDS011;21791;42.828;74.582;2022-12-07T11:01:06;339.60;;;133.13;;
35677;SDS011;21791;42.828;74.582;2022-12-07T11:03:46;312.52;;;131.73;;
35677;SDS011;21791;42.828;74.582;2022-12-07T11:18:06;361.60;;;144.75;;
35677;SDS011;21791;42.828;74.582;2022-12-07T11:37:26;351.05;;;146.73;;
35677;SDS011;21791;42.828;74.582;2022-12-07T11:40:02;346.45;;;144.20;;
35677;SDS011;21791;42.828;74.582;2022-12-07T11:43:02;350.95;;;145.10;;
35677;SDS011;21791;42.828;74.582;2022-12-07T11:45:31;376.60;;;150.35;;
35677;SDS011;21791;42.828;74.582;2022-12-07T11:48:02;411.60;;;160.85;;
35677;SDS011;21791;42.828;74.582;2022-12-07T11:55:43;346.00;;;143.27;;
35677;SDS011;21791;42.828;74.582;2022-12-07T11:58:33;360.60;;;146.50;;
35677;SDS011;21791;42.828;74.582;2022-12-07T12:01:08;375.10;;;149.68;;
35677;SDS011;21791;42.828;74.582;2022-12-07T12:06:22;305.55;;;133.45;;
35677;SDS011;21791;42.828;74.582;2022-12-07T12:09:24;310.60;;;136.77;;
35677;SDS011;21791;42.828;74.582;2022-12-07T12:23:15;296.25;;;133.52;;
35677;SDS011;21791;42.828;74.582;2022-12-07T12:25:48;328.17;;;146.80;;
35677;SDS011;21791;42.828;74.582;2022-12-07T12:28:35;334.65;;;146.20;;
35677;SDS011;21791;42.828;74.582;2022-12-07T12:31:31;300.83;;;132.50;;
35677;SDS011;21791;42.828;74.582;2022-12-07T12:34:03;318.95;;;138.77;;
35677;SDS011;21791;42.828;74.582;2022-12-07T12:36:50;304.08;;;136.20;;
35677;SDS011;21791;42.828;74.582;2022-12-07T12:39:17;287.33;;;131.70;;
35677;SDS011;21791;42.828;74.582;2022-12-07T12:46:53;285.23;;;124.30;;
35677;SDS011;21791;42.828;74.582;2022-12-07T12:51:54;263.77;;;119.32;;
35677;SDS011;21791;42.828;74.582;2022-12-07T12:54:29;265.25;;;119.70;;
35677;SDS011;21791;42.828;74.582;2022-12-07T12:59:34;236.38;;;103.60;;
35677;SDS011;21791;42.828;74.582;2022-12-07T13:02:21;258.38;;;115.30;;
35677;SDS011;21791;42.828;74.582;2022-12-07T13:10:22;249.65;;;106.40;;
35677;SDS011;21791;42.828;74.582;2022-12-07T13:12:56;274.42;;;112.00;;
35677;SDS011;21791;42.828;74.582;2022-12-07T13:15:53;252.23;;;112.70;;
35677;SDS011;21791;42.828;74.582;2022-12-07T13:18:40;262.20;;;113.25;;
35677;SDS011;21791;42.828;74.582;2022-12-07T13:29:13;294.60;;;131.25;;
35677;SDS011;21791;42.828;74.582;2022-12-07T13:31:55;293.75;;;130.82;;
35677;SDS011;21791;42.828;74.582;2022-12-07T13:34:34;309.15;;;134.23;;
35677;SDS011;21791;42.828;74.582;2022-12-07T13:37:25;288.40;;;132.82;;
35677;SDS011;21791;42.828;74.582;2022-12-07T13:39:56;291.60;;;128.30;;
35677;SDS011;21791;42.828;74.582;2022-12-07T13:42:25;331.02;;;149.38;;
35677;SDS011;21791;42.828;74.582;2022-12-07T13:44:54;376.17;;;172.27;;
35677;SDS011;21791;42.828;74.582;2022-12-07T13:47:41;364.15;;;166.98;;
35677;SDS011;21791;42.828;74.582;2022-12-07T13:50:24;340.48;;;156.38;;
35677;SDS011;21791;42.828;74.582;2022-12-07T13:52:54;364.60;;;162.20;;
35677;SDS011;21791;42.828;74.582;2022-12-07T13:55:23;378.05;;;173.65;;
35677;SDS011;21791;42.828;74.582;2022-12-07T13:57:53;389.15;;;176.30;;
35677;SDS011;21791;42.828;74.582;2022-12-07T14:00:27;376.23;;;169.23;;
35677;SDS011;21791;42.828;74.582;2022-12-07T14:02:59;405.13;;;175.02;;
35677;SDS011;21791;42.828;74.582;2022-12-07T14:05:34;376.00;;;165.80;;
35677;SDS011;21791;42.828;74.582;2022-12-07T14:08:02;389.40;;;167.68;;
35677;SDS011;21791;42.828;74.582;2022-12-07T14:16:18;487.67;;;223.70;;
35677;SDS011;21791;42.828;74.582;2022-12-07T14:18:55;475.45;;;210.98;;
35677;SDS011;21791;42.828;74.582;2022-12-07T14:21:25;495.92;;;221.75;;
35677;SDS011;21791;42.828;74.582;2022-12-07T14:24:07;482.77;;;217.02;;
35677;SDS011;21791;42.828;74.582;2022-12-07T14:26:38;459.58;;;211.18;;
35677;SDS011;21791;42.828;74.582;2022-12-07T14:29:22;483.27;;;218.25;;
35677;SDS011;21791;42.828;74.582;2022-12-07T14:31:56;467.05;;;215.65;;
35677;SDS011;21791;42.828;74.582;2022-12-07T14:34:30;416.90;;;185.25;;
35677;SDS011;21791;42.828;74.582;2022-12-07T14:36:57;418.55;;;184.20;;
35677;SDS011;21791;42.828;74.582;2022-12-07T14:39:23;457.33;;;204.70;;
35677;SDS011;21791;42.828;74.582;2022-12-07T14:41:50;462.17;;;200.95;;
35677;SDS011;21791;42.828;74.582;2022-12-07T14:44:17;426.55;;;188.07;;
35677;SDS011;21791;42.828;74.582;2022-12-07T14:46:48;423.90;;;183.13;;
35677;SDS011;21791;42.828;74.582;2022-12-07T14:49:17;430.15;;;178.40;;
35677;SDS011;21791;42.828;74.582;2022-12-07T14:51:44;425.85;;;185.93;;
35677;SDS011;21791;42.828;74.582;2022-12-07T14:54:14;444.75;;;185.60;;
35677;SDS011;21791;42.828;74.582;2022-12-07T14:56:44;430.88;;;186.48;;
35677;SDS011;21791;42.828;74.582;2022-12-07T14:59:14;441.63;;;190.63;;
35677;SDS011;21791;42.828;74.582;2022-12-07T15:01:42;434.85;;;184.07;;
35677;SDS011;21791;42.828;74.582;2022-12-07T15:04:09;414.52;;;171.65;;
35677;SDS011;21791;42.828;74.582;2022-12-07T15:06:36;422.83;;;182.40;;
35677;SDS011;21791;42.828;74.582;2022-12-07T15:09:03;389.02;;;169.35;;
35677;SDS011;21791;42.828;74.582;2022-12-07T15:11:30;380.52;;;166.20;;
35677;SDS011;21791;42.828;74.582;2022-12-07T15:13:58;416.80;;;171.85;;
35677;SDS011;21791;42.828;74.582;2022-12-07T15:16:34;431.08;;;184.68;;
35677;SDS011;21791;42.828;74.582;2022-12-07T15:19:01;400.10;;;173.20;;
35677;SDS011;21791;42.828;74.582;2022-12-07T15:21:28;388.55;;;168.90;;
35677;SDS011;21791;42.828;74.582;2022-12-07T15:23:55;478.73;;;200.38;;
35677;SDS011;21791;42.828;74.582;2022-12-07T15:26:22;402.50;;;172.23;;
35677;SDS011;21791;42.828;74.582;2022-12-07T15:28:49;454.20;;;187.75;;
35677;SDS011;21791;42.828;74.582;2022-12-07T15:31:18;374.73;;;163.93;;
35677;SDS011;21791;42.828;74.582;2022-12-07T15:33:48;392.25;;;164.25;;
35677;SDS011;21791;42.828;74.582;2022-12-07T15:36:24;367.38;;;159.95;;
35677;SDS011;21791;42.828;74.582;2022-12-07T15:38:53;467.10;;;196.32;;
35677;SDS011;21791;42.828;74.582;2022-12-07T15:41:20;428.60;;;179.98;;
35677;SDS011;21791;42.828;74.582;2022-12-07T15:43:46;426.10;;;175.88;;
35677;SDS011;21791;42.828;74.582;2022-12-07T15:46:35;428.58;;;180.93;;
35677;SDS011;21791;42.828;74.582;2022-12-07T15:49:04;462.73;;;197.75;;
35677;SDS011;21791;42.828;74.582;2022-12-07T15:51:51;464.20;;;195.10;;
35677;SDS011;21791;42.828;74.582;2022-12-07T15:54:19;439.63;;;182.65;;
35677;SDS011;21791;42.828;74.582;2022-12-07T15:56:48;503.05;;;202.60;;
35677;SDS011;21791;42.828;74.582;2022-12-07T15:59:15;479.77;;;194.00;;
35677;SDS011;21791;42.828;74.582;2022-12-07T16:01:42;458.42;;;187.23;;
35677;SDS011;21791;42.828;74.582;2022-12-07T16:04:09;481.67;;;190.32;;
35677;SDS011;21791;42.828;74.582;2022-12-07T16:06:36;387.20;;;162.98;;
35677;SDS011;21791;42.828;74.582;2022-12-07T16:09:03;466.65;;;189.77;;
35677;SDS011;21791;42.828;74.582;2022-12-07T16:11:31;392.70;;;160.05;;
35677;SDS011;21791;42.828;74.582;2022-12-07T16:13:58;393.90;;;160.77;;
35677;SDS011;21791;42.828;74.582;2022-12-07T16:16:25;470.40;;;189.10;;
35677;SDS011;21791;42.828;74.582;2022-12-07T16:18:52;409.08;;;168.93;;
35677;SDS011;21791;42.828;74.582;2022-12-07T16:21:20;429.08;;;169.70;;
35677;SDS011;21791;42.828;74.582;2022-12-07T16:23:46;469.50;;;179.13;;
35677;SDS011;21791;42.828;74.582;2022-12-07T16:26:14;392.67;;;156.68;;
35677;SDS011;21791;42.828;74.582;2022-12-07T16:28:43;441.50;;;173.77;;